<?xml version="1.0" encoding="UTF-8" standalone="no" ?>
<gpx xmlns="http://www.topografix.com/GPX/1/1" xmlns:xsi="http://www.w3.org/2001/XMLSchema-instance" xsi:schemaLocation="http://www.topografix.com/GPX/1/1 http://www.topografix.com/GPX/1/1/gpx.xsd" version="1.1" creator="VisuGPX - https://www.visugpx.com">
  <metadata>
    <name>Vallet_ChateauNoeCoteaux_</name>
    <desc><![CDATA[idor: 5410043_5409798_6463907_7386552 gnerando]]></desc>
  </metadata>
  <trk>
    <name><![CDATA[Vallet_ChateauNoe_10.6km-5410043]]></name>
    <extensions>
      <line xmlns="http://www.topografix.com/GPX/gpx_style/0/2">
        <color>008000</color>
        <width>4</width>
      </line>
    </extensions>
    <trkseg>
      <trkpt lat="47.1674" lon="-1.26553">
        <ele>73</ele>
        <time>2023-11-14T05:48:46Z</time>
      </trkpt>
      <trkpt lat="47.16769" lon="-1.26669">
        <ele>75</ele>
        <time>2023-11-14T05:50:38Z</time>
      </trkpt>
      <trkpt lat="47.16955" lon="-1.26553">
        <ele>77</ele>
        <time>2023-11-14T05:55:08Z</time>
      </trkpt>
      <trkpt lat="47.17098" lon="-1.2669">
        <ele>73</ele>
        <time>2023-11-14T05:58:55Z</time>
      </trkpt>
      <trkpt lat="47.17174" lon="-1.26729">
        <ele>75</ele>
        <time>2023-11-14T06:00:43Z</time>
      </trkpt>
      <trkpt lat="47.17361" lon="-1.26724">
        <ele>76</ele>
        <time>2023-11-14T06:04:52Z</time>
      </trkpt>
      <trkpt lat="47.17516" lon="-1.26703">
        <ele>77</ele>
        <time>2023-11-14T06:08:20Z</time>
      </trkpt>
      <trkpt lat="47.17921" lon="-1.26733">
        <ele>66</ele>
        <time>2023-11-14T06:17:21Z</time>
      </trkpt>
      <trkpt lat="47.17892" lon="-1.27514">
        <ele>69</ele>
        <time>2023-11-14T06:29:11Z</time>
      </trkpt>
      <trkpt lat="47.17959" lon="-1.28226">
        <ele>74</ele>
        <time>2023-11-14T06:40:03Z</time>
      </trkpt>
      <trkpt lat="47.18041" lon="-1.28917">
        <ele>65</ele>
        <time>2023-11-14T06:50:39Z</time>
      </trkpt>
      <trkpt lat="47.18169" lon="-1.29166">
        <ele>60</ele>
        <time>2023-11-14T06:55:22Z</time>
      </trkpt>
      <trkpt lat="47.18233" lon="-1.29497">
        <ele>52</ele>
        <time>2023-11-14T07:00:34Z</time>
      </trkpt>
      <trkpt lat="47.18303" lon="-1.29527">
        <ele>51</ele>
        <time>2023-11-14T07:02:12Z</time>
      </trkpt>
      <trkpt lat="47.18181" lon="-1.29939">
        <ele>45</ele>
        <time>2023-11-14T07:08:59Z</time>
      </trkpt>
      <trkpt lat="47.18154" lon="-1.30166">
        <ele>43</ele>
        <time>2023-11-14T07:12:28Z</time>
      </trkpt>
      <trkpt lat="47.18061" lon="-1.30454">
        <ele>40</ele>
        <time>2023-11-14T07:17:17Z</time>
      </trkpt>
      <trkpt lat="47.18079" lon="-1.30561">
        <ele>38</ele>
        <time>2023-11-14T07:18:57Z</time>
      </trkpt>
      <trkpt lat="47.18014" lon="-1.30746">
        <ele>36</ele>
        <time>2023-11-14T07:22:06Z</time>
      </trkpt>
      <trkpt lat="47.17793" lon="-1.30583">
        <ele>31</ele>
        <time>2023-11-14T07:27:36Z</time>
      </trkpt>
      <trkpt lat="47.1772" lon="-1.30565">
        <ele>31</ele>
        <time>2023-11-14T07:29:15Z</time>
      </trkpt>
      <trkpt lat="47.17612" lon="-1.30025">
        <ele>36</ele>
        <time>2023-11-14T07:37:46Z</time>
      </trkpt>
      <trkpt lat="47.17866" lon="-1.30098">
        <ele>36</ele>
        <time>2023-11-14T07:43:31Z</time>
      </trkpt>
      <trkpt lat="47.18003" lon="-1.30059">
        <ele>39</ele>
        <time>2023-11-14T07:46:37Z</time>
      </trkpt>
      <trkpt lat="47.18046" lon="-1.29896">
        <ele>43</ele>
        <time>2023-11-14T07:49:16Z</time>
      </trkpt>
      <trkpt lat="47.17886" lon="-1.29797">
        <ele>42</ele>
        <time>2023-11-14T07:53:07Z</time>
      </trkpt>
      <trkpt lat="47.17909" lon="-1.29656">
        <ele>44</ele>
        <time>2023-11-14T07:55:19Z</time>
      </trkpt>
      <trkpt lat="47.17828" lon="-1.29368">
        <ele>54</ele>
        <time>2023-11-14T08:00:02Z</time>
      </trkpt>
      <trkpt lat="47.17874" lon="-1.29149">
        <ele>62</ele>
        <time>2023-11-14T08:03:29Z</time>
      </trkpt>
      <trkpt lat="47.17831" lon="-1.29038">
        <ele>69</ele>
        <time>2023-11-14T08:05:25Z</time>
      </trkpt>
      <trkpt lat="47.17737" lon="-1.28995">
        <ele>70</ele>
        <time>2023-11-14T08:07:37Z</time>
      </trkpt>
      <trkpt lat="47.17693" lon="-1.28866">
        <ele>72</ele>
        <time>2023-11-14T08:09:48Z</time>
      </trkpt>
      <trkpt lat="47.17743" lon="-1.2854">
        <ele>73</ele>
        <time>2023-11-14T08:14:51Z</time>
      </trkpt>
      <trkpt lat="47.1737" lon="-1.28222">
        <ele>61</ele>
        <time>2023-11-14T08:24:26Z</time>
      </trkpt>
      <trkpt lat="47.17233" lon="-1.27913">
        <ele>67</ele>
        <time>2023-11-14T08:30:01Z</time>
      </trkpt>
      <trkpt lat="47.17273" lon="-1.2769">
        <ele>71</ele>
        <time>2023-11-14T08:33:30Z</time>
      </trkpt>
      <trkpt lat="47.17895" lon="-1.26733">
        <ele>66</ele>
        <time>2023-11-14T08:53:31Z</time>
      </trkpt>
      <trkpt lat="47.16979" lon="-1.26561">
        <ele>77</ele>
        <time>2023-11-14T09:14:03Z</time>
      </trkpt>
      <trkpt lat="47.16728" lon="-1.2666">
        <ele>75</ele>
        <time>2023-11-14T09:19:50Z</time>
      </trkpt>
    </trkseg>
  </trk>
</gpx>